sensor_id;sensor_type;location;lat;lon;timestamp;P1;durP1;ratioP1;P2;durP2;ratioP2
52642;SDS011;38531;53.296;6.614;2023-07-29T00:01:09;1.92;;;1.05;;
52642;SDS011;38531;53.296;6.614;2023-07-29T00:03:34;2.38;;;1.20;;
52642;SDS011;38531;53.296;6.614;2023-07-29T00:06:00;1.95;;;1.20;;
52642;SDS011;38531;53.296;6.614;2023-07-29T00:08:26;2.05;;;1.17;;
52642;SDS011;38531;53.296;6.614;2023-07-29T00:10:52;2.47;;;1.00;;
52642;SDS011;38531;53.296;6.614;2023-07-29T00:13:17;1.73;;;1.08;;
52642;SDS011;38531;53.296;6.614;2023-07-29T00:15:43;4.75;;;1.10;;
52642;SDS011;38531;53.296;6.614;2023-07-29T00:18:09;1.55;;;1.10;;
52642;SDS011;38531;53.296;6.614;2023-07-29T00:20:35;2.40;;;1.33;;
52642;SDS011;38531;53.296;6.614;2023-07-29T00:23:00;2.72;;;1.27;;
52642;SDS011;38531;53.296;6.614;2023-07-29T00:25:27;2.05;;;1.05;;
52642;SDS011;38531;53.296;6.614;2023-07-29T00:27:56;1.50;;;1.00;;
52642;SDS011;38531;53.296;6.614;2023-07-29T00:30:23;2.97;;;1.20;;
52642;SDS011;38531;53.296;6.614;2023-07-29T00:32:49;1.88;;;1.30;;
52642;SDS011;38531;53.296;6.614;2023-07-29T00:35:14;1.70;;;0.90;;
52642;SDS011;38531;53.296;6.614;2023-07-29T00:37:40;1.58;;;0.93;;
52642;SDS011;38531;53.296;6.614;2023-07-29T00:40:10;1.95;;;0.98;;
52642;SDS011;38531;53.296;6.614;2023-07-29T00:42:41;2.13;;;1.27;;
52642;SDS011;38531;53.296;6.614;2023-07-29T00:45:08;2.72;;;1.23;;
52642;SDS011;38531;53.296;6.614;2023-07-29T00:47:34;2.13;;;1.38;;
52642;SDS011;38531;53.296;6.614;2023-07-29T00:50:00;2.10;;;1.10;;
52642;SDS011;38531;53.296;6.614;2023-07-29T00:52:26;1.98;;;1.23;;
52642;SDS011;38531;53.296;6.614;2023-07-29T00:54:52;2.33;;;1.20;;
52642;SDS011;38531;53.296;6.614;2023-07-29T00:57:18;2.03;;;1.20;;
52642;SDS011;38531;53.296;6.614;2023-07-29T00:59:45;2.55;;;1.10;;
52642;SDS011;38531;53.296;6.614;2023-07-29T01:02:11;1.45;;;0.90;;
52642;SDS011;38531;53.296;6.614;2023-07-29T01:04:37;3.05;;;1.42;;
52642;SDS011;38531;53.296;6.614;2023-07-29T01:15:18;3.10;;;2.20;;
52642;SDS011;38531;53.296;6.614;2023-07-29T01:17:52;4.05;;;1.80;;
52642;SDS011;38531;53.296;6.614;2023-07-29T01:20:21;3.28;;;1.98;;
52642;SDS011;38531;53.296;6.614;2023-07-29T01:22:50;2.95;;;1.35;;
52642;SDS011;38531;53.296;6.614;2023-07-29T01:25:16;2.28;;;1.20;;
52642;SDS011;38531;53.296;6.614;2023-07-29T01:27:42;2.42;;;1.65;;
52642;SDS011;38531;53.296;6.614;2023-07-29T01:30:10;1.75;;;1.40;;
52642;SDS011;38531;53.296;6.614;2023-07-29T01:32:50;3.28;;;1.60;;
52642;SDS011;38531;53.296;6.614;2023-07-29T01:35:27;2.40;;;1.40;;
52642;SDS011;38531;53.296;6.614;2023-07-29T01:38:09;2.78;;;1.42;;
52642;SDS011;38531;53.296;6.614;2023-07-29T01:40:56;6.35;;;1.58;;
52642;SDS011;38531;53.296;6.614;2023-07-29T01:43:24;4.43;;;1.92;;
52642;SDS011;38531;53.296;6.614;2023-07-29T01:45:54;6.43;;;2.22;;
52642;SDS011;38531;53.296;6.614;2023-07-29T01:48:19;3.25;;;2.28;;
52642;SDS011;38531;53.296;6.614;2023-07-29T01:50:45;3.95;;;1.95;;
52642;SDS011;38531;53.296;6.614;2023-07-29T01:53:11;3.28;;;1.55;;
52642;SDS011;38531;53.296;6.614;2023-07-29T01:55:37;3.33;;;2.40;;
52642;SDS011;38531;53.296;6.614;2023-07-29T01:58:02;5.13;;;2.78;;
52642;SDS011;38531;53.296;6.614;2023-07-29T02:00:28;3.30;;;2.10;;
52642;SDS011;38531;53.296;6.614;2023-07-29T02:02:54;2.17;;;1.52;;
52642;SDS011;38531;53.296;6.614;2023-07-29T02:05:19;5.30;;;2.60;;
52642;SDS011;38531;53.296;6.614;2023-07-29T02:07:47;3.42;;;1.92;;
52642;SDS011;38531;53.296;6.614;2023-07-29T02:10:13;3.10;;;2.03;;
52642;SDS011;38531;53.296;6.614;2023-07-29T02:12:39;3.70;;;2.45;;
52642;SDS011;38531;53.296;6.614;2023-07-29T02:15:05;3.65;;;2.38;;
52642;SDS011;38531;53.296;6.614;2023-07-29T02:17:31;4.63;;;1.88;;
52642;SDS011;38531;53.296;6.614;2023-07-29T02:19:57;4.97;;;2.03;;
52642;SDS011;38531;53.296;6.614;2023-07-29T02:22:24;4.90;;;2.58;;
52642;SDS011;38531;53.296;6.614;2023-07-29T02:24:50;3.35;;;2.03;;
52642;SDS011;38531;53.296;6.614;2023-07-29T02:27:16;3.90;;;2.05;;
52642;SDS011;38531;53.296;6.614;2023-07-29T02:29:42;3.40;;;2.00;;
52642;SDS011;38531;53.296;6.614;2023-07-29T02:32:07;5.10;;;2.47;;
52642;SDS011;38531;53.296;6.614;2023-07-29T02:34:34;3.45;;;2.10;;
52642;SDS011;38531;53.296;6.614;2023-07-29T02:36:59;4.50;;;1.98;;
52642;SDS011;38531;53.296;6.614;2023-07-29T02:39:25;4.72;;;1.75;;
52642;SDS011;38531;53.296;6.614;2023-07-29T02:41:53;2.65;;;1.52;;
52642;SDS011;38531;53.296;6.614;2023-07-29T02:44:23;3.83;;;1.90;;
52642;SDS011;38531;53.296;6.614;2023-07-29T02:46:52;3.20;;;2.22;;
52642;SDS011;38531;53.296;6.614;2023-07-29T02:49:19;3.30;;;2.15;;
52642;SDS011;38531;53.296;6.614;2023-07-29T02:51:45;2.97;;;1.90;;
52642;SDS011;38531;53.296;6.614;2023-07-29T02:54:11;2.85;;;1.85;;
52642;SDS011;38531;53.296;6.614;2023-07-29T02:56:39;2.97;;;1.58;;
52642;SDS011;38531;53.296;6.614;2023-07-29T02:59:05;3.92;;;1.38;;
52642;SDS011;38531;53.296;6.614;2023-07-29T03:01:34;3.75;;;2.08;;
52642;SDS011;38531;53.296;6.614;2023-07-29T03:03:59;2.63;;;1.52;;
52642;SDS011;38531;53.296;6.614;2023-07-29T03:06:26;4.00;;;2.20;;
52642;SDS011;38531;53.296;6.614;2023-07-29T03:08:53;2.63;;;1.30;;
52642;SDS011;38531;53.296;6.614;2023-07-29T03:11:19;3.55;;;2.13;;
52642;SDS011;38531;53.296;6.614;2023-07-29T03:13:45;3.55;;;1.58;;
52642;SDS011;38531;53.296;6.614;2023-07-29T03:16:15;4.45;;;2.00;;
52642;SDS011;38531;53.296;6.614;2023-07-29T03:18:42;2.53;;;1.70;;
52642;SDS011;38531;53.296;6.614;2023-07-29T03:21:09;2.45;;;1.70;;
52642;SDS011;38531;53.296;6.614;2023-07-29T03:23:36;4.82;;;2.38;;
52642;SDS011;38531;53.296;6.614;2023-07-29T03:26:03;3.03;;;1.90;;
52642;SDS011;38531;53.296;6.614;2023-07-29T03:28:36;2.42;;;1.27;;
52642;SDS011;38531;53.296;6.614;2023-07-29T03:31:03;2.63;;;1.70;;
52642;SDS011;38531;53.296;6.614;2023-07-29T03:33:29;3.03;;;1.65;;
52642;SDS011;38531;53.296;6.614;2023-07-29T03:35:54;3.88;;;1.70;;
52642;SDS011;38531;53.296;6.614;2023-07-29T03:38:23;4.20;;;1.67;;
52642;SDS011;38531;53.296;6.614;2023-07-29T03:44:30;2.72;;;1.42;;
52642;SDS011;38531;53.296;6.614;2023-07-29T03:46:56;3.50;;;1.88;;
52642;SDS011;38531;53.296;6.614;2023-07-29T03:49:22;5.13;;;2.30;;
52642;SDS011;38531;53.296;6.614;2023-07-29T03:51:48;5.55;;;1.73;;
52642;SDS011;38531;53.296;6.614;2023-07-29T03:54:14;3.25;;;1.58;;
52642;SDS011;38531;53.296;6.614;2023-07-29T03:56:39;1.67;;;1.20;;
52642;SDS011;38531;53.296;6.614;2023-07-29T03:59:05;2.10;;;1.20;;
52642;SDS011;38531;53.296;6.614;2023-07-29T04:01:34;3.53;;;1.85;;
52642;SDS011;38531;53.296;6.614;2023-07-29T04:04:00;3.58;;;1.98;;
52642;SDS011;38531;53.296;6.614;2023-07-29T04:06:25;2.95;;;1.50;;
52642;SDS011;38531;53.296;6.614;2023-07-29T04:08:54;4.35;;;1.83;;
52642;SDS011;38531;53.296;6.614;2023-07-29T04:11:23;3.33;;;1.17;;
52642;SDS011;38531;53.296;6.614;2023-07-29T04:13:49;3.55;;;1.92;;
52642;SDS011;38531;53.296;6.614;2023-07-29T04:16:16;3.58;;;1.70;;
52642;SDS011;38531;53.296;6.614;2023-07-29T04:18:44;3.13;;;1.52;;
52642;SDS011;38531;53.296;6.614;2023-07-29T04:21:12;2.35;;;1.42;;
52642;SDS011;38531;53.296;6.614;2023-07-29T04:23:38;2.60;;;1.73;;
52642;SDS011;38531;53.296;6.614;2023-07-29T04:26:05;2.63;;;1.48;;
52642;SDS011;38531;53.296;6.614;2023-07-29T04:28:31;3.15;;;1.30;;
52642;SDS011;38531;53.296;6.614;2023-07-29T04:30:59;3.78;;;1.90;;
52642;SDS011;38531;53.296;6.614;2023-07-29T04:33:28;1.92;;;1.25;;
52642;SDS011;38531;53.296;6.614;2023-07-29T04:35:55;2.38;;;1.42;;
52642;SDS011;38531;53.296;6.614;2023-07-29T04:38:20;4.03;;;1.58;;
52642;SDS011;38531;53.296;6.614;2023-07-29T04:40:48;3.78;;;1.42;;
52642;SDS011;38531;53.296;6.614;2023-07-29T04:43:14;3.63;;;1.55;;
52642;SDS011;38531;53.296;6.614;2023-07-29T04:45:43;3.17;;;1.35;;
52642;SDS011;38531;53.296;6.614;2023-07-29T04:48:09;3.72;;;1.70;;
52642;SDS011;38531;53.296;6.614;2023-07-29T04:50:37;3.60;;;1.70;;
52642;SDS011;38531;53.296;6.614;2023-07-29T04:53:05;2.50;;;1.40;;
52642;SDS011;38531;53.296;6.614;2023-07-29T04:55:33;2.78;;;1.63;;
52642;SDS011;38531;53.296;6.614;2023-07-29T04:57:59;3.35;;;1.45;;
52642;SDS011;38531;53.296;6.614;2023-07-29T05:00:25;2.60;;;1.40;;
52642;SDS011;38531;53.296;6.614;2023-07-29T05:02:51;2.05;;;1.00;;
52642;SDS011;38531;53.296;6.614;2023-07-29T05:05:16;4.50;;;1.30;;
52642;SDS011;38531;53.296;6.614;2023-07-29T05:07:42;2.30;;;1.00;;
52642;SDS011;38531;53.296;6.614;2023-07-29T05:10:08;2.00;;;1.10;;
52642;SDS011;38531;53.296;6.614;2023-07-29T05:12:36;2.15;;;1.20;;
52642;SDS011;38531;53.296;6.614;2023-07-29T05:15:02;2.00;;;0.75;;
52642;SDS011;38531;53.296;6.614;2023-07-29T05:17:28;5.07;;;1.10;;
52642;SDS011;38531;53.296;6.614;2023-07-29T05:19:54;3.33;;;1.00;;
52642;SDS011;38531;53.296;6.614;2023-07-29T05:22:22;3.08;;;0.85;;
52642;SDS011;38531;53.296;6.614;2023-07-29T05:24:50;3.05;;;1.08;;
52642;SDS011;38531;53.296;6.614;2023-07-29T05:27:16;3.00;;;1.00;;
52642;SDS011;38531;53.296;6.614;2023-07-29T05:29:44;2.00;;;1.13;;
52642;SDS011;38531;53.296;6.614;2023-07-29T05:32:09;1.67;;;0.80;;
52642;SDS011;38531;53.296;6.614;2023-07-29T05:34:38;1.42;;;0.85;;
52642;SDS011;38531;53.296;6.614;2023-07-29T05:37:04;2.15;;;0.85;;
52642;SDS011;38531;53.296;6.614;2023-07-29T05:39:30;1.85;;;0.73;;
52642;SDS011;38531;53.296;6.614;2023-07-29T05:41:58;1.35;;;0.80;;
52642;SDS011;38531;53.296;6.614;2023-07-29T05:44:27;1.25;;;0.70;;
52642;SDS011;38531;53.296;6.614;2023-07-29T05:46:55;0.95;;;0.77;;
52642;SDS011;38531;53.296;6.614;2023-07-29T05:49:21;1.55;;;0.80;;
52642;SDS011;38531;53.296;6.614;2023-07-29T05:51:47;1.98;;;0.77;;
52642;SDS011;38531;53.296;6.614;2023-07-29T05:54:13;1.77;;;0.73;;
52642;SDS011;38531;53.296;6.614;2023-07-29T05:56:39;1.75;;;0.80;;
52642;SDS011;38531;53.296;6.614;2023-07-29T05:59:05;1.42;;;0.75;;
52642;SDS011;38531;53.296;6.614;2023-07-29T06:01:31;2.95;;;0.82;;
52642;SDS011;38531;53.296;6.614;2023-07-29T06:03:57;1.98;;;0.90;;
52642;SDS011;38531;53.296;6.614;2023-07-29T06:06:40;1.60;;;0.88;;
52642;SDS011;38531;53.296;6.614;2023-07-29T06:09:09;2.33;;;1.10;;
52642;SDS011;38531;53.296;6.614;2023-07-29T06:11:35;1.55;;;0.65;;
52642;SDS011;38531;53.296;6.614;2023-07-29T06:14:03;2.33;;;0.95;;
52642;SDS011;38531;53.296;6.614;2023-07-29T06:16:29;2.80;;;1.00;;
52642;SDS011;38531;53.296;6.614;2023-07-29T06:18:54;2.65;;;0.90;;
52642;SDS011;38531;53.296;6.614;2023-07-29T06:21:23;3.90;;;1.08;;
52642;SDS011;38531;53.296;6.614;2023-07-29T06:23:49;2.78;;;0.85;;
52642;SDS011;38531;53.296;6.614;2023-07-29T06:26:14;1.50;;;1.00;;
52642;SDS011;38531;53.296;6.614;2023-07-29T06:28:40;1.80;;;0.80;;
52642;SDS011;38531;53.296;6.614;2023-07-29T06:31:06;2.50;;;1.17;;
52642;SDS011;38531;53.296;6.614;2023-07-29T06:33:31;2.17;;;1.10;;
52642;SDS011;38531;53.296;6.614;2023-07-29T06:36:02;3.08;;;0.90;;
52642;SDS011;38531;53.296;6.614;2023-07-29T06:38:28;1.33;;;0.70;;
52642;SDS011;38531;53.296;6.614;2023-07-29T06:40:54;2.65;;;0.73;;
52642;SDS011;38531;53.296;6.614;2023-07-29T06:43:20;1.60;;;0.98;;
52642;SDS011;38531;53.296;6.614;2023-07-29T06:45:46;1.42;;;0.70;;
52642;SDS011;38531;53.296;6.614;2023-07-29T06:48:12;3.13;;;0.95;;
52642;SDS011;38531;53.296;6.614;2023-07-29T06:50:38;6.57;;;1.00;;
52642;SDS011;38531;53.296;6.614;2023-07-29T06:53:03;3.35;;;1.23;;
52642;SDS011;38531;53.296;6.614;2023-07-29T06:55:29;4.32;;;1.17;;
52642;SDS011;38531;53.296;6.614;2023-07-29T06:57:55;3.47;;;1.20;;
52642;SDS011;38531;53.296;6.614;2023-07-29T07:00:21;1.45;;;0.90;;
52642;SDS011;38531;53.296;6.614;2023-07-29T07:02:49;2.47;;;0.80;;
52642;SDS011;38531;53.296;6.614;2023-07-29T07:08:58;3.22;;;1.00;;
52642;SDS011;38531;53.296;6.614;2023-07-29T07:11:51;2.15;;;0.80;;
52642;SDS011;38531;53.296;6.614;2023-07-29T07:19:38;2.55;;;0.80;;
52642;SDS011;38531;53.296;6.614;2023-07-29T07:47:05;3.92;;;0.82;;
52642;SDS011;38531;53.296;6.614;2023-07-29T07:53:19;2.47;;;1.00;;
52642;SDS011;38531;53.296;6.614;2023-07-29T07:55:45;2.90;;;1.17;;
52642;SDS011;38531;53.296;6.614;2023-07-29T07:58:11;2.08;;;0.90;;
52642;SDS011;38531;53.296;6.614;2023-07-29T08:00:37;2.40;;;0.73;;
52642;SDS011;38531;53.296;6.614;2023-07-29T08:03:03;3.30;;;0.93;;
52642;SDS011;38531;53.296;6.614;2023-07-29T08:05:29;4.07;;;1.10;;
52642;SDS011;38531;53.296;6.614;2023-07-29T08:07:54;1.30;;;0.70;;
52642;SDS011;38531;53.296;6.614;2023-07-29T08:10:21;4.53;;;0.95;;
52642;SDS011;38531;53.296;6.614;2023-07-29T08:12:46;2.72;;;0.75;;
52642;SDS011;38531;53.296;6.614;2023-07-29T08:15:12;1.17;;;0.63;;
52642;SDS011;38531;53.296;6.614;2023-07-29T08:17:38;3.58;;;1.00;;
52642;SDS011;38531;53.296;6.614;2023-07-29T08:20:03;4.28;;;1.02;;
52642;SDS011;38531;53.296;6.614;2023-07-29T08:22:30;2.25;;;0.60;;
52642;SDS011;38531;53.296;6.614;2023-07-29T08:24:55;3.67;;;0.90;;
52642;SDS011;38531;53.296;6.614;2023-07-29T08:27:21;1.52;;;0.80;;
52642;SDS011;38531;53.296;6.614;2023-07-29T08:29:47;4.28;;;0.82;;
52642;SDS011;38531;53.296;6.614;2023-07-29T08:32:12;2.72;;;0.70;;
52642;SDS011;38531;53.296;6.614;2023-07-29T08:34:38;2.78;;;0.93;;
52642;SDS011;38531;53.296;6.614;2023-07-29T08:37:04;1.35;;;0.60;;
52642;SDS011;38531;53.296;6.614;2023-07-29T08:39:30;2.47;;;0.60;;
52642;SDS011;38531;53.296;6.614;2023-07-29T08:42:03;4.30;;;0.90;;
52642;SDS011;38531;53.296;6.614;2023-07-29T08:44:35;2.00;;;0.68;;
52642;SDS011;38531;53.296;6.614;2023-07-29T08:47:08;3.63;;;1.08;;
52642;SDS011;38531;53.296;6.614;2023-07-29T08:49:35;2.95;;;0.80;;
52642;SDS011;38531;53.296;6.614;2023-07-29T08:52:02;3.05;;;0.75;;
52642;SDS011;38531;53.296;6.614;2023-07-29T08:54:29;2.53;;;0.60;;
52642;SDS011;38531;53.296;6.614;2023-07-29T08:56:55;2.40;;;0.80;;
52642;SDS011;38531;53.296;6.614;2023-07-29T08:59:21;2.63;;;0.63;;
52642;SDS011;38531;53.296;6.614;2023-07-29T09:01:47;3.72;;;1.30;;
52642;SDS011;38531;53.296;6.614;2023-07-29T09:04:13;4.47;;;0.70;;
52642;SDS011;38531;53.296;6.614;2023-07-29T09:06:39;2.58;;;0.60;;
52642;SDS011;38531;53.296;6.614;2023-07-29T09:09:07;1.10;;;0.55;;
52642;SDS011;38531;53.296;6.614;2023-07-29T09:11:33;1.35;;;0.40;;
52642;SDS011;38531;53.296;6.614;2023-07-29T09:13:59;2.03;;;0.60;;
52642;SDS011;38531;53.296;6.614;2023-07-29T09:16:24;3.70;;;0.50;;
52642;SDS011;38531;53.296;6.614;2023-07-29T09:18:51;1.63;;;0.75;;
52642;SDS011;38531;53.296;6.614;2023-07-29T09:21:18;1.27;;;0.60;;
52642;SDS011;38531;53.296;6.614;2023-07-29T09:23:49;3.17;;;0.75;;
52642;SDS011;38531;53.296;6.614;2023-07-29T09:26:25;0.93;;;0.50;;
52642;SDS011;38531;53.296;6.614;2023-07-29T09:28:53;2.10;;;0.50;;
52642;SDS011;38531;53.296;6.614;2023-07-29T09:31:20;1.17;;;0.50;;
52642;SDS011;38531;53.296;6.614;2023-07-29T09:33:48;0.98;;;0.50;;
52642;SDS011;38531;53.296;6.614;2023-07-29T09:36:14;1.10;;;0.50;;
52642;SDS011;38531;53.296;6.614;2023-07-29T09:38:40;3.53;;;0.50;;
52642;SDS011;38531;53.296;6.614;2023-07-29T09:41:05;1.33;;;0.50;;
52642;SDS011;38531;53.296;6.614;2023-07-29T09:43:32;2.10;;;0.50;;
52642;SDS011;38531;53.296;6.614;2023-07-29T09:46:00;3.22;;;0.57;;
52642;SDS011;38531;53.296;6.614;2023-07-29T09:48:27;2.83;;;0.40;;
52642;SDS011;38531;53.296;6.614;2023-07-29T09:50:55;2.45;;;0.50;;
52642;SDS011;38531;53.296;6.614;2023-07-29T09:53:21;3.33;;;0.45;;
52642;SDS011;38531;53.296;6.614;2023-07-29T09:55:47;1.35;;;0.40;;
52642;SDS011;38531;53.296;6.614;2023-07-29T09:58:26;1.48;;;1.05;;
52642;SDS011;38531;53.296;6.614;2023-07-29T10:00:53;2.38;;;0.40;;
52642;SDS011;38531;53.296;6.614;2023-07-29T10:03:19;1.15;;;0.30;;
52642;SDS011;38531;53.296;6.614;2023-07-29T10:05:49;1.00;;;0.40;;
52642;SDS011;38531;53.296;6.614;2023-07-29T10:08:57;1.63;;;0.30;;
52642;SDS011;38531;53.296;6.614;2023-07-29T10:11:42;0.43;;;0.20;;
52642;SDS011;38531;53.296;6.614;2023-07-29T10:17:42;0.77;;;0.40;;
52642;SDS011;38531;53.296;6.614;2023-07-29T10:35:30;1.08;;;0.28;;
52642;SDS011;38531;53.296;6.614;2023-07-29T10:37:58;2.58;;;0.65;;
52642;SDS011;38531;53.296;6.614;2023-07-29T10:43:32;2.03;;;0.40;;
52642;SDS011;38531;53.296;6.614;2023-07-29T10:46:14;0.95;;;0.30;;
52642;SDS011;38531;53.296;6.614;2023-07-29T10:48:56;3.00;;;0.40;;
52642;SDS011;38531;53.296;6.614;2023-07-29T10:51:22;2.40;;;0.90;;
52642;SDS011;38531;53.296;6.614;2023-07-29T10:53:52;0.88;;;0.20;;
52642;SDS011;38531;53.296;6.614;2023-07-29T10:58:56;1.42;;;0.30;;
52642;SDS011;38531;53.296;6.614;2023-07-29T11:01:29;1.95;;;0.28;;
52642;SDS011;38531;53.296;6.614;2023-07-29T11:09:41;3.13;;;0.40;;
52642;SDS011;38531;53.296;6.614;2023-07-29T11:15:04;1.50;;;0.47;;
52642;SDS011;38531;53.296;6.614;2023-07-29T11:20:08;1.88;;;0.30;;
52642;SDS011;38531;53.296;6.614;2023-07-29T11:22:35;2.63;;;0.30;;
52642;SDS011;38531;53.296;6.614;2023-07-29T11:25:01;1.02;;;0.43;;
52642;SDS011;38531;53.296;6.614;2023-07-29T11:27:28;1.05;;;0.40;;
52642;SDS011;38531;53.296;6.614;2023-07-29T11:29:59;2.10;;;0.50;;
52642;SDS011;38531;53.296;6.614;2023-07-29T11:32:27;3.13;;;0.50;;
52642;SDS011;38531;53.296;6.614;2023-07-29T11:34:53;0.88;;;0.40;;
52642;SDS011;38531;53.296;6.614;2023-07-29T11:37:19;0.47;;;0.20;;
52642;SDS011;38531;53.296;6.614;2023-07-29T11:39:48;1.20;;;0.40;;
52642;SDS011;38531;53.296;6.614;2023-07-29T11:42:14;4.32;;;0.28;;
52642;SDS011;38531;53.296;6.614;2023-07-29T11:44:40;0.63;;;0.30;;
52642;SDS011;38531;53.296;6.614;2023-07-29T11:47:07;1.65;;;0.30;;
52642;SDS011;38531;53.296;6.614;2023-07-29T11:49:38;2.85;;;0.40;;
52642;SDS011;38531;53.296;6.614;2023-07-29T11:52:05;1.30;;;0.28;;
52642;SDS011;38531;53.296;6.614;2023-07-29T11:54:36;1.13;;;0.35;;
52642;SDS011;38531;53.296;6.614;2023-07-29T11:57:06;1.00;;;0.30;;
52642;SDS011;38531;53.296;6.614;2023-07-29T11:59:33;2.50;;;0.50;;
52642;SDS011;38531;53.296;6.614;2023-07-29T12:02:08;1.23;;;0.40;;
52642;SDS011;38531;53.296;6.614;2023-07-29T12:04:40;0.98;;;0.45;;
52642;SDS011;38531;53.296;6.614;2023-07-29T12:07:06;2.70;;;0.50;;
52642;SDS011;38531;53.296;6.614;2023-07-29T12:09:33;1.83;;;0.50;;
52642;SDS011;38531;53.296;6.614;2023-07-29T12:12:01;1.27;;;0.30;;
52642;SDS011;38531;53.296;6.614;2023-07-29T12:14:31;3.10;;;0.40;;
52642;SDS011;38531;53.296;6.614;2023-07-29T12:17:01;1.63;;;0.50;;
52642;SDS011;38531;53.296;6.614;2023-07-29T12:19:37;2.25;;;0.35;;
52642;SDS011;38531;53.296;6.614;2023-07-29T12:22:05;4.05;;;0.63;;
52642;SDS011;38531;53.296;6.614;2023-07-29T12:24:32;1.75;;;0.52;;
52642;SDS011;38531;53.296;6.614;2023-07-29T12:26:59;1.38;;;0.47;;
52642;SDS011;38531;53.296;6.614;2023-07-29T12:29:25;1.13;;;0.30;;
52642;SDS011;38531;53.296;6.614;2023-07-29T12:31:58;3.13;;;0.57;;
52642;SDS011;38531;53.296;6.614;2023-07-29T12:34:29;4.18;;;0.40;;
52642;SDS011;38531;53.296;6.614;2023-07-29T12:36:57;1.40;;;0.40;;
52642;SDS011;38531;53.296;6.614;2023-07-29T12:39:27;1.00;;;0.30;;
52642;SDS011;38531;53.296;6.614;2023-07-29T12:41:55;1.35;;;0.40;;
52642;SDS011;38531;53.296;6.614;2023-07-29T12:44:25;0.73;;;0.40;;
52642;SDS011;38531;53.296;6.614;2023-07-29T12:46:55;0.50;;;0.30;;
52642;SDS011;38531;53.296;6.614;2023-07-29T12:49:21;2.88;;;0.50;;
52642;SDS011;38531;53.296;6.614;2023-07-29T12:51:47;0.82;;;0.30;;
52642;SDS011;38531;53.296;6.614;2023-07-29T12:54:13;0.88;;;0.30;;
52642;SDS011;38531;53.296;6.614;2023-07-29T12:56:39;0.73;;;0.30;;
52642;SDS011;38531;53.296;6.614;2023-07-29T12:59:05;1.42;;;0.30;;
52642;SDS011;38531;53.296;6.614;2023-07-29T13:01:31;1.65;;;0.40;;
52642;SDS011;38531;53.296;6.614;2023-07-29T13:03:57;0.50;;;0.30;;
52642;SDS011;38531;53.296;6.614;2023-07-29T13:06:22;0.82;;;0.40;;
52642;SDS011;38531;53.296;6.614;2023-07-29T13:08:48;2.25;;;0.68;;
52642;SDS011;38531;53.296;6.614;2023-07-29T13:11:15;2.30;;;0.43;;
52642;SDS011;38531;53.296;6.614;2023-07-29T13:13:41;1.25;;;0.47;;
52642;SDS011;38531;53.296;6.614;2023-07-29T13:16:07;1.10;;;0.45;;
52642;SDS011;38531;53.296;6.614;2023-07-29T13:18:33;0.40;;;0.28;;
52642;SDS011;38531;53.296;6.614;2023-07-29T13:20:59;0.60;;;0.30;;
52642;SDS011;38531;53.296;6.614;2023-07-29T13:23:25;0.70;;;0.30;;
52642;SDS011;38531;53.296;6.614;2023-07-29T13:25:51;1.35;;;0.40;;
52642;SDS011;38531;53.296;6.614;2023-07-29T13:28:17;1.90;;;0.75;;
52642;SDS011;38531;53.296;6.614;2023-07-29T13:30:44;0.40;;;0.30;;
52642;SDS011;38531;53.296;6.614;2023-07-29T13:33:10;2.47;;;0.30;;
52642;SDS011;38531;53.296;6.614;2023-07-29T13:35:35;2.15;;;0.30;;
52642;SDS011;38531;53.296;6.614;2023-07-29T13:38:01;1.83;;;0.30;;
52642;SDS011;38531;53.296;6.614;2023-07-29T13:40:27;2.60;;;0.40;;
52642;SDS011;38531;53.296;6.614;2023-07-29T13:42:54;2.05;;;0.43;;
52642;SDS011;38531;53.296;6.614;2023-07-29T13:45:20;1.08;;;0.57;;
52642;SDS011;38531;53.296;6.614;2023-07-29T13:47:46;0.60;;;0.30;;
52642;SDS011;38531;53.296;6.614;2023-07-29T13:50:11;1.23;;;0.30;;
52642;SDS011;38531;53.296;6.614;2023-07-29T13:52:37;1.65;;;0.40;;
52642;SDS011;38531;53.296;6.614;2023-07-29T13:55:04;2.22;;;0.32;;
52642;SDS011;38531;53.296;6.614;2023-07-29T13:57:31;1.45;;;0.45;;
52642;SDS011;38531;53.296;6.614;2023-07-29T13:59:57;2.25;;;0.50;;
52642;SDS011;38531;53.296;6.614;2023-07-29T14:02:23;2.72;;;0.68;;
52642;SDS011;38531;53.296;6.614;2023-07-29T14:04:49;1.20;;;0.30;;
52642;SDS011;38531;53.296;6.614;2023-07-29T14:07:14;2.25;;;0.40;;
52642;SDS011;38531;53.296;6.614;2023-07-29T14:09:40;0.88;;;0.32;;
52642;SDS011;38531;53.296;6.614;2023-07-29T14:12:08;1.92;;;0.40;;
52642;SDS011;38531;53.296;6.614;2023-07-29T14:14:37;0.90;;;0.40;;
52642;SDS011;38531;53.296;6.614;2023-07-29T14:17:03;0.93;;;0.30;;
52642;SDS011;38531;53.296;6.614;2023-07-29T14:19:29;1.23;;;0.40;;
52642;SDS011;38531;53.296;6.614;2023-07-29T14:21:55;2.75;;;0.68;;
52642;SDS011;38531;53.296;6.614;2023-07-29T14:24:21;1.88;;;0.30;;
52642;SDS011;38531;53.296;6.614;2023-07-29T14:26:47;0.90;;;0.40;;
52642;SDS011;38531;53.296;6.614;2023-07-29T14:29:13;0.57;;;0.40;;
52642;SDS011;38531;53.296;6.614;2023-07-29T14:31:39;1.10;;;0.50;;
52642;SDS011;38531;53.296;6.614;2023-07-29T14:34:05;0.45;;;0.30;;
52642;SDS011;38531;53.296;6.614;2023-07-29T14:36:30;1.40;;;0.47;;
52642;SDS011;38531;53.296;6.614;2023-07-29T14:38:56;1.58;;;0.50;;
52642;SDS011;38531;53.296;6.614;2023-07-29T14:41:22;1.35;;;0.40;;
52642;SDS011;38531;53.296;6.614;2023-07-29T14:43:47;0.90;;;0.38;;
52642;SDS011;38531;53.296;6.614;2023-07-29T14:46:13;1.15;;;0.40;;
52642;SDS011;38531;53.296;6.614;2023-07-29T14:48:39;3.33;;;0.50;;
52642;SDS011;38531;53.296;6.614;2023-07-29T14:51:05;2.22;;;0.43;;
52642;SDS011;38531;53.296;6.614;2023-07-29T14:53:30;2.15;;;0.50;;
52642;SDS011;38531;53.296;6.614;2023-07-29T14:55:56;3.50;;;0.50;;
52642;SDS011;38531;53.296;6.614;2023-07-29T14:58:22;1.98;;;0.40;;
52642;SDS011;38531;53.296;6.614;2023-07-29T15:00:50;1.20;;;0.63;;
52642;SDS011;38531;53.296;6.614;2023-07-29T15:03:16;0.55;;;0.30;;
52642;SDS011;38531;53.296;6.614;2023-07-29T15:05:42;1.83;;;0.40;;
52642;SDS011;38531;53.296;6.614;2023-07-29T15:08:08;1.77;;;0.40;;
52642;SDS011;38531;53.296;6.614;2023-07-29T15:10:33;3.08;;;0.40;;
52642;SDS011;38531;53.296;6.614;2023-07-29T15:12:59;2.85;;;0.50;;
52642;SDS011;38531;53.296;6.614;2023-07-29T15:15:25;3.10;;;0.30;;
52642;SDS011;38531;53.296;6.614;2023-07-29T15:17:50;1.65;;;0.30;;
52642;SDS011;38531;53.296;6.614;2023-07-29T15:20:16;1.50;;;0.40;;
52642;SDS011;38531;53.296;6.614;2023-07-29T15:22:42;1.13;;;0.43;;
52642;SDS011;38531;53.296;6.614;2023-07-29T15:25:08;1.50;;;0.38;;
52642;SDS011;38531;53.296;6.614;2023-07-29T15:27:34;0.95;;;0.22;;
52642;SDS011;38531;53.296;6.614;2023-07-29T15:30:00;0.60;;;0.40;;
52642;SDS011;38531;53.296;6.614;2023-07-29T15:32:26;2.03;;;0.30;;
52642;SDS011;38531;53.296;6.614;2023-07-29T15:34:53;1.13;;;0.30;;
52642;SDS011;38531;53.296;6.614;2023-07-29T15:37:21;1.10;;;0.30;;
52642;SDS011;38531;53.296;6.614;2023-07-29T15:43:06;1.15;;;0.43;;
52642;SDS011;38531;53.296;6.614;2023-07-29T15:45:59;2.50;;;0.63;;
52642;SDS011;38531;53.296;6.614;2023-07-29T15:48:42;1.60;;;0.40;;
52642;SDS011;38531;53.296;6.614;2023-07-29T15:51:48;0.57;;;0.20;;
52642;SDS011;38531;53.296;6.614;2023-07-29T15:54:55;2.42;;;0.30;;
52642;SDS011;38531;53.296;6.614;2023-07-29T15:57:58;2.85;;;0.47;;
52642;SDS011;38531;53.296;6.614;2023-07-29T16:22:25;1.30;;;0.45;;
52642;SDS011;38531;53.296;6.614;2023-07-29T16:37:14;0.82;;;0.32;;
52642;SDS011;38531;53.296;6.614;2023-07-29T16:43:32;1.73;;;0.93;;
52642;SDS011;38531;53.296;6.614;2023-07-29T17:00:51;1.48;;;0.40;;
52642;SDS011;38531;53.296;6.614;2023-07-29T17:03:37;1.90;;;0.30;;
52642;SDS011;38531;53.296;6.614;2023-07-29T17:06:29;0.93;;;0.35;;
52642;SDS011;38531;53.296;6.614;2023-07-29T17:09:02;0.85;;;0.30;;
52642;SDS011;38531;53.296;6.614;2023-07-29T17:11:54;2.20;;;0.40;;
52642;SDS011;38531;53.296;6.614;2023-07-29T17:14:27;0.57;;;0.35;;